Time;durP1;ratioP1;P1;durP2;ratioP2;P2;SDS_P1;SDS_P2;PMS_P1;PMS_P2;Temp;Humidity;BMP_temperature;BMP_pressure;BME280_temperature;BME280_humidity;BME280_pressure;Samples;Min_cycle;Max_cycle;Signal;HPM_P1;HPM_P2
2022/05/25 00:01:15;;;;;;;5.30;3.37;;;15.70;92.20;;;;;;5035319;28;20943;-42
2022/05/25 00:03:42;;;;;;;6.10;3.70;;;15.70;92.30;;;;;;5035950;28;20429;-43
2022/05/25 00:06:11;;;;;;;7.37;3.30;;;15.80;92.50;;;;;;5036030;28;20543;-46
2022/05/25 00:08:39;;;;;;;4.50;3.80;;;15.80;92.80;;;;;;5035880;28;20444;-43
2022/05/25 00:11:08;;;;;;;4.00;3.70;;;16.00;93.00;;;;;;5036384;28;20467;-43
2022/05/25 00:13:36;;;;;;;8.27;4.23;;;15.90;93.30;;;;;;5039149;28;20435;-44
2022/05/25 00:16:02;;;;;;;5.20;4.30;;;15.40;93.10;;;;;;5039879;28;20450;-43
2022/05/25 00:18:30;;;;;;;4.87;3.87;;;15.80;93.50;;;;;;5038664;28;20435;-43
2022/05/25 00:20:56;;;;;;;5.90;4.17;;;16.00;93.70;;;;;;5037634;28;20436;-44
2022/05/25 00:23:22;;;;;;;6.90;3.70;;;15.00;93.20;;;;;;5039485;28;20856;-43
2022/05/25 00:25:49;;;;;;;4.67;3.90;;;15.50;93.60;;;;;;5038796;28;20804;-43
2022/05/25 00:28:17;;;;;;;4.43;3.73;;;15.40;93.70;;;;;;5039319;28;20451;-44
2022/05/25 00:30:45;;;;;;;6.10;3.83;;;15.30;93.90;;;;;;5036464;28;20474;-43
2022/05/25 00:33:12;;;;;;;6.90;4.33;;;15.60;94.50;;;;;;5036025;28;20920;-43
2022/05/25 00:35:40;;;;;;;6.67;3.80;;;14.80;93.90;;;;;;5035204;28;20971;-43
2022/05/25 00:38:09;;;;;;;5.60;3.60;;;15.30;94.10;;;;;;5035940;28;21012;-43
2022/05/25 00:40:38;;;;;;;8.73;5.00;;;15.20;94.10;;;;;;5036360;28;20457;-44
2022/05/25 00:43:05;;;;;;;5.03;4.53;;;15.30;94.30;;;;;;5036245;28;20439;-43
2022/05/25 00:45:37;;;;;;;6.53;4.70;;;15.60;94.50;;;;;;5035646;28;20428;-44
2022/05/25 00:48:06;;;;;;;8.40;3.80;;;15.80;94.80;;;;;;5035545;28;20459;-44
2022/05/25 00:51:12;;;;;;;6.00;4.13;;;15.30;94.70;;;;;;5035118;28;20850;-45
2022/05/25 00:53:21;;;;;;;7.27;4.40;;;15.70;95.10;;;;;;5034682;28;20546;-43
2022/05/25 00:55:49;;;;;;;6.40;4.10;;;15.20;95.10;;;;;;5035152;28;20442;-43
2022/05/25 00:58:16;;;;;;;8.23;4.40;;;14.70;95.10;;;;;;5034600;28;20817;-44
2022/05/25 01:00:43;;;;;;;6.47;5.40;;;15.50;95.50;;;;;;5034214;28;20505;-44
2022/05/25 01:03:13;;;;;;;6.63;4.73;;;15.20;95.40;;;;;;5034623;28;20446;-44
2022/05/25 01:05:49;;;;;;;7.10;4.50;;;15.10;95.40;;;;;;5034596;28;20440;-44
2022/05/25 01:08:31;;;;;;;5.60;4.10;;;15.20;95.80;;;;;;5034381;28;20978;-44
2022/05/25 01:11:13;;;;;;;4.93;4.00;;;15.10;95.90;;;;;;5034567;28;20485;-44
2022/05/25 01:13:46;;;;;;;4.83;3.90;;;15.00;95.80;;;;;;5034457;28;20431;-43
2022/05/25 01:16:26;;;;;;;5.57;4.27;;;15.00;96.20;;;;;;5034173;28;20467;-43
2022/05/25 01:19:01;;;;;;;7.87;4.40;;;15.10;96.30;;;;;;5034207;28;20441;-43
2022/05/25 01:21:34;;;;;;;5.50;4.40;;;15.00;96.40;;;;;;5034107;28;20439;-43
2022/05/25 01:24:24;;;;;;;4.87;4.17;;;14.80;96.40;;;;;;5033499;28;20753;-45
2022/05/25 01:27:24;;;;;;;4.90;3.80;;;15.30;96.80;;;;;;5033847;28;20872;-43
2022/05/25 01:30:03;;;;;;;8.33;3.70;;;14.90;97.00;;;;;;5033521;28;20448;-43
2022/05/25 01:32:36;;;;;;;9.87;4.90;;;14.60;96.80;;;;;;5034041;28;20497;-43
2022/05/25 01:35:09;;;;;;;4.87;4.40;;;15.00;97.00;;;;;;5033696;28;20436;-43
2022/05/25 01:37:43;;;;;;;5.60;4.10;;;14.80;97.30;;;;;;5033725;28;20459;-43
2022/05/25 01:40:18;;;;;;;5.40;4.33;;;14.80;97.60;;;;;;5033580;28;20902;-44
2022/05/25 01:42:47;;;;;;;4.60;3.47;;;14.40;97.60;;;;;;5033646;28;20934;-44
2022/05/25 01:45:16;;;;;;;5.20;4.23;;;15.10;98.00;;;;;;5033681;28;20436;-44
2022/05/25 01:47:47;;;;;;;5.23;4.07;;;14.00;97.60;;;;;;5033478;28;20773;-44
2022/05/25 01:50:17;;;;;;;6.80;4.70;;;14.10;97.80;;;;;;5033127;28;20506;-44
2022/05/25 01:52:46;;;;;;;5.53;3.77;;;14.90;98.40;;;;;;5033266;28;20487;-43
2022/05/25 01:55:18;;;;;;;5.27;4.77;;;14.50;98.30;;;;;;5033243;28;20439;-44
2022/05/25 01:57:49;;;;;;;6.93;4.40;;;14.90;98.60;;;;;;5033600;28;20814;-43
2022/05/25 02:00:29;;;;;;;4.73;4.33;;;14.60;98.60;;;;;;5033124;28;20435;-43
2022/05/25 02:05:45;;;;;;;5.73;5.13;;;14.60;98.80;;;;;;5033322;28;20462;-43
2022/05/25 02:08:24;;;;;;;5.83;5.23;;;14.80;99.20;;;;;;5033020;28;20984;-43
2022/05/25 02:10:59;;;;;;;6.07;4.93;;;14.80;99.30;;;;;;5033146;28;20438;-43
2022/05/25 02:13:49;;;;;;;6.70;4.83;;;14.80;99.50;;;;;;5033258;28;20435;-43
2022/05/25 02:16:30;;;;;;;5.80;5.27;;;14.70;99.70;;;;;;5033074;28;20442;-44
2022/05/25 02:19:05;;;;;;;5.67;5.10;;;14.10;99.30;;;;;;5032470;28;20480;-43
2022/05/25 02:21:38;;;;;;;7.20;5.83;;;14.90;99.80;;;;;;5033263;28;20724;-43
2022/05/25 02:24:10;;;;;;;5.43;4.80;;;14.50;99.70;;;;;;5032841;28;20438;-43
2022/05/25 02:26:42;;;;;;;6.50;5.87;;;14.50;99.80;;;;;;5032755;28;20466;-44
2022/05/25 02:29:12;;;;;;;8.87;5.10;;;14.40;99.90;;;;;;5032401;28;20947;-43
2022/05/25 02:31:45;;;;;;;6.07;5.47;;;14.20;99.90;;;;;;5032592;28;20482;-44
2022/05/25 02:34:16;;;;;;;5.33;4.83;;;14.90;99.90;;;;;;5032702;28;20434;-44
2022/05/25 02:36:45;;;;;;;7.63;5.97;;;14.70;99.90;;;;;;5032522;28;20501;-44
2022/05/25 02:39:12;;;;;;;7.07;5.33;;;14.00;99.90;;;;;;5032302;28;20438;-43
2022/05/25 02:41:43;;;;;;;6.40;5.63;;;14.60;99.90;;;;;;5032498;28;20439;-43
2022/05/25 02:44:10;;;;;;;6.50;5.73;;;14.40;99.90;;;;;;5032573;28;20439;-43
2022/05/25 02:46:37;;;;;;;9.00;6.10;;;14.60;99.90;;;;;;5032504;28;20464;-43
2022/05/25 02:49:05;;;;;;;9.37;5.43;;;14.40;99.90;;;;;;5032208;28;20438;-44
2022/05/25 02:51:31;;;;;;;6.70;5.40;;;15.10;99.90;;;;;;5032239;28;20475;-43
2022/05/25 02:53:58;;;;;;;6.97;5.70;;;14.70;99.90;;;;;;5032491;28;20439;-43
2022/05/25 02:56:24;;;;;;;9.07;5.90;;;14.70;99.90;;;;;;5032268;28;20977;-42
2022/05/25 02:58:51;;;;;;;6.47;5.47;;;14.80;99.90;;;;;;5031933;28;20980;-43
2022/05/25 03:01:17;;;;;;;6.27;5.67;;;15.10;99.90;;;;;;5032085;28;20445;-43
2022/05/25 03:03:44;;;;;;;6.37;5.77;;;14.30;99.90;;;;;;5032134;28;20442;-44
2022/05/25 03:06:12;;;;;;;6.23;5.50;;;14.20;99.90;;;;;;5031916;28;20442;-43
2022/05/25 03:08:41;;;;;;;10.57;6.07;;;14.90;99.90;;;;;;5031607;28;20770;-43
2022/05/25 03:11:08;;;;;;;7.60;6.43;;;15.30;99.90;;;;;;5031819;28;20565;-43
2022/05/25 03:13:35;;;;;;;11.10;5.97;;;15.00;99.90;;;;;;5032160;28;20430;-43
2022/05/25 03:16:03;;;;;;;7.13;6.47;;;14.90;99.90;;;;;;5032064;28;20962;-44
2022/05/25 03:18:30;;;;;;;7.67;6.17;;;14.90;99.90;;;;;;5031685;28;20434;-44
2022/05/25 03:20:56;;;;;;;9.50;6.00;;;15.20;99.90;;;;;;5031882;28;20445;-44
2022/05/25 03:23:24;;;;;;;5.67;5.07;;;15.00;99.90;;;;;;5032074;28;20427;-44
2022/05/25 03:25:51;;;;;;;9.13;6.63;;;15.20;99.90;;;;;;5031865;28;20440;-43
2022/05/25 03:28:18;;;;;;;7.70;6.17;;;14.80;99.90;;;;;;5031602;28;20454;-44
2022/05/25 03:30:46;;;;;;;12.40;7.13;;;15.20;99.90;;;;;;5031637;28;20438;-44
2022/05/25 03:33:13;;;;;;;7.00;5.53;;;15.10;99.90;;;;;;5031746;28;20482;-44
2022/05/25 03:35:40;;;;;;;6.90;6.30;;;15.50;99.90;;;;;;5032011;28;20429;-44
2022/05/25 03:38:08;;;;;;;7.77;6.27;;;15.20;99.90;;;;;;5031671;28;20852;-44
2022/05/25 03:40:36;;;;;;;8.23;5.50;;;15.10;99.90;;;;;;5031534;28;20451;-44
2022/05/25 03:43:04;;;;;;;9.73;6.37;;;15.30;99.90;;;;;;5032438;28;20431;-44
2022/05/25 03:45:31;;;;;;;6.93;6.23;;;15.80;99.90;;;;;;5032384;28;20430;-44
2022/05/25 03:47:57;;;;;;;7.87;6.17;;;15.60;99.90;;;;;;5034362;28;20459;-45
2022/05/25 03:50:24;;;;;;;6.97;5.40;;;14.80;99.90;;;;;;5035308;28;20440;-44
2022/05/25 03:52:51;;;;;;;9.50;6.63;;;15.70;99.90;;;;;;5035580;28;20861;-45
2022/05/25 03:55:18;;;;;;;9.63;6.27;;;15.30;99.90;;;;;;5035515;28;20438;-44
2022/05/25 03:57:46;;;;;;;7.17;6.20;;;15.80;99.90;;;;;;5035289;28;20474;-44
2022/05/25 04:00:13;;;;;;;7.57;5.10;;;15.60;99.90;;;;;;5035426;28;20439;-45
2022/05/25 04:02:39;;;;;;;6.20;4.83;;;15.60;99.90;;;;;;5035786;28;20436;-44
2022/05/25 04:05:10;;;;;;;5.90;4.80;;;15.40;99.90;;;;;;5035271;28;20439;-44
2022/05/25 04:07:38;;;;;;;7.87;5.90;;;15.60;99.90;;;;;;5049400;22;20561;-52
2022/05/25 04:10:06;;;;;;;6.03;5.50;;;15.60;99.60;;;;;;5034756;28;20463;-52
2022/05/25 04:12:34;;;;;;;7.50;6.13;;;15.70;99.70;;;;;;5034753;28;20548;-52
2022/05/25 04:15:01;;;;;;;9.07;5.90;;;15.90;99.30;;;;;;5034736;28;20438;-52
2022/05/25 04:17:28;;;;;;;6.20;5.60;;;16.00;99.00;;;;;;5033568;28;20490;-49
2022/05/25 04:19:56;;;;;;;8.80;5.47;;;15.80;98.40;;;;;;5034484;28;20439;-51
2022/05/25 04:22:23;;;;;;;6.60;4.97;;;16.00;98.10;;;;;;5034931;28;20524;-52
2022/05/25 04:24:50;;;;;;;8.40;5.37;;;16.40;97.90;;;;;;5034892;28;20522;-51
2022/05/25 04:27:16;;;;;;;8.47;5.00;;;16.40;97.40;;;;;;5034485;28;20677;-51
2022/05/25 04:29:43;;;;;;;8.37;5.60;;;16.10;96.80;;;;;;5034307;28;20797;-50
2022/05/25 04:32:11;;;;;;;7.93;5.50;;;16.20;96.50;;;;;;5034448;28;20482;-50
2022/05/25 04:34:37;;;;;;;7.17;5.10;;;16.40;96.40;;;;;;5034273;28;20431;-52
2022/05/25 04:39:48;;;;;;;5.57;5.00;;;15.70;95.60;;;;;;5034176;28;20437;-52
2022/05/25 04:42:15;;;;;;;5.90;5.23;;;16.10;95.30;;;;;;5034420;28;20433;-53
2022/05/25 04:44:41;;;;;;;6.13;5.43;;;16.50;95.40;;;;;;5034377;28;20428;-52
2022/05/25 04:47:09;;;;;;;6.60;5.00;;;16.50;95.20;;;;;;5034109;28;20456;-54
2022/05/25 04:49:37;;;;;;;7.47;4.97;;;15.80;94.80;;;;;;5034212;28;20454;-52
2022/05/25 04:52:04;;;;;;;6.00;4.73;;;16.30;95.00;;;;;;5034247;28;20513;-52
2022/05/25 04:54:31;;;;;;;7.17;5.50;;;16.40;94.70;;;;;;5034077;28;20428;-53
2022/05/25 04:59:50;;;;;;;5.63;5.10;;;16.40;94.50;;;;;;4996541;28;20556;-53
2022/05/25 05:02:17;;;;;;;6.13;5.53;;;16.60;94.40;;;;;;5034084;28;20503;-52
2022/05/25 05:04:46;;;;;;;6.60;5.00;;;16.50;93.90;;;;;;5034003;28;20465;-51
2022/05/25 05:07:13;;;;;;;6.40;5.13;;;16.50;93.50;;;;;;5033674;28;20554;-52
2022/05/25 05:09:42;;;;;;;5.87;4.67;;;16.60;93.40;;;;;;5033452;28;20432;-51
2022/05/25 05:12:09;;;;;;;7.80;6.07;;;16.70;93.30;;;;;;5033544;28;20473;-51
2022/05/25 05:14:37;;;;;;;4.83;4.37;;;17.00;93.20;;;;;;5033779;28;20435;-52
2022/05/25 05:17:06;;;;;;;5.97;4.80;;;16.80;93.00;;;;;;5033025;28;20518;-53
2022/05/25 05:19:49;;;;;;;6.20;4.47;;;17.20;92.90;;;;;;5031998;28;20833;-52
2022/05/25 05:22:18;;;;;;;7.60;6.33;;;17.00;92.50;;;;;;5032026;28;20449;-53
2022/05/25 05:24:44;;;;;;;4.43;4.07;;;17.20;92.90;;;;;;5033566;28;20427;-53
2022/05/25 05:27:11;;;;;;;5.20;4.63;;;17.60;92.20;;;;;;5033246;28;20462;-53
2022/05/25 05:29:38;;;;;;;5.23;4.73;;;17.40;91.90;;;;;;5032814;28;20436;-53
2022/05/25 05:32:05;;;;;;;5.50;5.00;;;17.40;91.70;;;;;;5032918;28;20473;-53
2022/05/25 05:34:32;;;;;;;4.57;4.10;;;17.80;91.50;;;;;;5032856;28;21005;-52
2022/05/25 05:37:05;;;;;;;5.33;4.83;;;19.00;91.70;;;;;;5033162;28;20474;-53
2022/05/25 05:39:38;;;;;;;5.70;5.03;;;18.40;90.80;;;;;;5032752;28;20488;-53
2022/05/25 05:42:08;;;;;;;5.30;4.80;;;18.70;90.70;;;;;;5032903;28;20926;-52
2022/05/25 05:44:38;;;;;;;6.50;5.43;;;18.30;90.50;;;;;;5032579;28;20493;-52
2022/05/25 05:47:10;;;;;;;5.57;5.07;;;18.70;90.20;;;;;;5030336;28;20466;-51
2022/05/25 05:49:37;;;;;;;5.20;4.50;;;18.60;89.30;;;;;;5030645;28;20454;-52
2022/05/25 05:52:05;;;;;;;6.37;5.70;;;18.10;88.90;;;;;;5032700;28;20784;-52
2022/05/25 05:54:32;;;;;;;6.90;5.10;;;18.50;89.30;;;;;;5030741;28;20442;-53
2022/05/25 05:57:00;;;;;;;6.80;5.97;;;18.30;88.90;;;;;;5030595;28;20482;-53
2022/05/25 05:59:27;;;;;;;5.47;4.97;;;18.70;89.30;;;;;;5032395;28;20443;-53
2022/05/25 06:01:53;;;;;;;7.90;5.20;;;19.10;88.70;;;;;;5032193;28;20942;-52
2022/05/25 06:04:21;;;;;;;12.50;5.27;;;18.80;88.00;;;;;;5032536;28;20835;-53
2022/05/25 06:06:49;;;;;;;5.47;5.00;;;19.00;87.90;;;;;;5032404;28;20561;-53
2022/05/25 06:09:17;;;;;;;5.67;5.17;;;19.30;88.00;;;;;;5031972;28;20529;-53
2022/05/25 06:11:44;;;;;;;7.70;5.40;;;18.70;86.50;;;;;;5032654;28;20971;-52
2022/05/25 06:14:11;;;;;;;6.30;5.13;;;18.50;85.90;;;;;;5032572;28;20482;-53
2022/05/25 06:19:29;;;;;;;6.87;5.40;;;18.90;85.60;;;;;;5032367;28;20450;-52
2022/05/25 06:22:00;;;;;;;6.70;6.03;;;19.10;84.90;;;;;;5032869;28;20446;-53
2022/05/25 06:24:30;;;;;;;5.70;4.97;;;18.90;84.20;;;;;;5032107;28;20915;-51
2022/05/25 06:26:57;;;;;;;6.10;5.27;;;18.80;84.20;;;;;;5031942;28;20943;-53
2022/05/25 06:29:24;;;;;;;6.10;5.50;;;19.30;84.60;;;;;;5031751;28;20931;-52
2022/05/25 06:31:51;;;;;;;8.43;5.00;;;19.50;85.10;;;;;;5032199;28;20445;-54
2022/05/25 06:34:18;;;;;;;7.40;6.00;;;19.50;84.90;;;;;;5031557;28;20583;-52
2022/05/25 06:36:48;;;;;;;8.23;5.57;;;19.20;84.10;;;;;;5031637;28;20462;-53
2022/05/25 06:39:14;;;;;;;6.73;4.90;;;19.10;83.20;;;;;;5031661;28;20447;-52
2022/05/25 06:41:42;;;;;;;5.27;4.77;;;19.50;83.70;;;;;;5031731;28;20438;-52
2022/05/25 06:44:09;;;;;;;7.10;4.40;;;19.40;83.40;;;;;;5031427;28;20435;-52
2022/05/25 06:46:37;;;;;;;5.60;5.00;;;19.80;83.90;;;;;;5031900;28;20455;-53
2022/05/25 06:49:04;;;;;;;6.20;5.60;;;19.70;83.70;;;;;;5031490;28;20789;-52
2022/05/25 06:51:33;;;;;;;6.13;5.43;;;19.80;83.60;;;;;;5031464;28;20446;-51
2022/05/25 06:53:59;;;;;;;5.47;4.77;;;20.40;83.70;;;;;;5031711;28;20471;-52
2022/05/25 06:56:26;;;;;;;6.70;4.80;;;20.10;82.50;;;;;;5030421;28;20907;-53
2022/05/25 06:58:55;;;;;;;6.83;4.77;;;20.00;82.20;;;;;;5031162;28;20478;-53
2022/05/25 07:01:23;;;;;;;7.00;4.63;;;19.90;81.30;;;;;;5031467;28;20446;-51
2022/05/25 07:03:52;;;;;;;6.53;5.93;;;19.60;81.00;;;;;;5031712;28;20807;-53
2022/05/25 07:06:20;;;;;;;10.13;5.67;;;20.30;81.60;;;;;;5031706;28;20431;-52
2022/05/25 07:08:46;;;;;;;5.50;5.10;;;19.80;81.10;;;;;;5031334;28;20456;-52
2022/05/25 07:11:13;;;;;;;9.37;4.77;;;19.80;80.90;;;;;;5031806;28;20444;-52
2022/05/25 07:13:41;;;;;;;6.13;4.80;;;20.10;80.70;;;;;;5031545;28;20499;-54
2022/05/25 07:16:13;;;;;;;5.67;5.17;;;20.20;80.50;;;;;;5031666;28;20431;-52
2022/05/25 07:18:40;;;;;;;6.40;5.20;;;20.50;80.70;;;;;;5031417;28;20998;-52
2022/05/25 07:21:09;;;;;;;7.50;4.80;;;20.40;80.80;;;;;;5030889;28;20944;-52
2022/05/25 07:23:36;;;;;;;6.53;5.23;;;20.20;80.30;;;;;;5031339;28;20833;-52
2022/05/25 07:26:03;;;;;;;6.37;5.40;;;20.40;80.50;;;;;;5031261;28;20435;-52
2022/05/25 07:28:30;;;;;;;6.13;4.90;;;20.30;79.90;;;;;;5030691;28;20463;-53
2022/05/25 07:31:02;;;;;;;5.50;4.60;;;20.10;79.60;;;;;;5031335;28;20782;-54
2022/05/25 07:33:30;;;;;;;7.07;5.20;;;20.30;79.90;;;;;;5030900;28;20526;-52
2022/05/25 07:35:58;;;;;;;9.20;6.00;;;20.10;79.70;;;;;;5031528;28;20871;-52
2022/05/25 07:38:26;;;;;;;10.60;5.40;;;20.40;80.00;;;;;;5031193;28;20460;-52
2022/05/25 07:40:54;;;;;;;5.93;5.23;;;20.20;79.70;;;;;;5031230;28;20956;-52
2022/05/25 07:43:25;;;;;;;6.23;5.13;;;20.20;79.50;;;;;;5029865;28;20539;-52
2022/05/25 07:45:51;;;;;;;8.97;5.00;;;20.20;79.30;;;;;;5031457;28;20427;-52
2022/05/25 07:48:18;;;;;;;6.43;5.20;;;20.60;80.00;;;;;;5031270;28;20460;-52
2022/05/25 07:50:46;;;;;;;7.00;4.30;;;20.30;79.20;;;;;;5031109;28;20440;-52
2022/05/25 07:56:00;;;;;;;5.73;3.60;;;20.60;78.80;;;;;;5031221;28;20428;-50
2022/05/25 07:58:27;;;;;;;4.57;3.33;;;21.00;78.90;;;;;;5031122;28;20465;-52
2022/05/25 08:00:56;;;;;;;6.13;2.80;;;20.50;77.70;;;;;;5031173;28;20470;-52
2022/05/25 08:06:10;;;;;;;6.30;3.73;;;21.10;77.70;;;;;;5031292;28;20431;-53
2022/05/25 08:08:37;;;;;;;6.37;3.50;;;21.10;77.50;;;;;;5030601;28;20477;-52
2022/05/25 08:11:08;;;;;;;6.57;3.67;;;20.40;76.20;;;;;;5030910;28;20436;-53
2022/05/25 08:13:36;;;;;;;5.43;3.90;;;20.80;76.70;;;;;;5031101;28;21002;-53
2022/05/25 08:16:02;;;;;;;4.30;3.50;;;21.00;77.10;;;;;;5031097;28;20843;-52
2022/05/25 08:18:29;;;;;;;5.33;3.60;;;20.70;77.00;;;;;;5030593;28;20463;-53
2022/05/25 08:20:55;;;;;;;5.83;3.83;;;20.50;76.80;;;;;;5031181;28;20464;-52
2022/05/25 08:23:24;;;;;;;5.43;2.87;;;20.40;76.80;;;;;;5030765;28;20541;-52
2022/05/25 08:25:50;;;;;;;6.00;3.40;;;20.60;77.40;;;;;;5030647;28;20434;-52
2022/05/25 08:28:17;;;;;;;5.60;3.00;;;20.30;77.00;;;;;;5030960;28;20456;-53
2022/05/25 08:30:46;;;;;;;3.87;3.37;;;20.60;77.00;;;;;;5030332;28;20438;-53
2022/05/25 08:33:16;;;;;;;4.40;2.80;;;20.60;76.60;;;;;;5031803;28;20572;-51
2022/05/25 08:35:44;;;;;;;7.03;4.47;;;20.60;76.30;;;;;;5033805;28;20886;-52
2022/05/25 08:38:11;;;;;;;3.57;3.20;;;21.00;76.60;;;;;;5033983;28;20481;-53
2022/05/25 08:40:39;;;;;;;5.10;3.57;;;20.40;75.30;;;;;;5033825;28;20453;-53
2022/05/25 08:43:12;;;;;;;3.83;3.10;;;21.00;76.00;;;;;;5034242;28;20450;-53
2022/05/25 08:45:47;;;;;;;5.90;3.13;;;21.00;76.00;;;;;;5034216;28;20795;-53
2022/05/25 08:48:16;;;;;;;4.70;3.20;;;21.20;76.00;;;;;;5033878;28;20471;-53
2022/05/25 08:50:44;;;;;;;4.07;3.20;;;21.00;75.30;;;;;;5033483;28;20816;-52
2022/05/25 08:53:13;;;;;;;5.30;2.90;;;21.00;75.40;;;;;;5033764;28;20438;-50
2022/05/25 08:55:53;;;;;;;4.13;2.80;;;21.10;75.40;;;;;;5014128;28;20432;-54
2022/05/25 08:58:23;;;;;;;4.50;2.60;;;20.70;74.80;;;;;;5013761;28;20793;-52
2022/05/25 09:00:51;;;;;;;6.57;4.03;;;21.10;75.20;;;;;;5013948;28;20444;-53
2022/05/25 09:03:28;;;;;;;4.73;3.43;;;21.00;75.20;;;;;;5014582;28;20434;-53
2022/05/25 09:06:01;;;;;;;6.83;3.83;;;20.90;74.50;;;;;;5013856;28;20431;-53
2022/05/25 09:08:36;;;;;;;4.50;3.07;;;20.90;74.10;;;;;;5013444;28;20485;-53
2022/05/25 09:11:10;;;;;;;9.40;3.13;;;21.20;74.10;;;;;;5019546;28;20455;-53
2022/05/25 09:13:41;;;;;;;4.13;3.13;;;21.40;74.10;;;;;;5033236;28;20474;-52
2022/05/25 09:16:18;;;;;;;4.07;2.93;;;21.30;74.30;;;;;;5033504;28;20442;-52
2022/05/25 09:18:53;;;;;;;3.73;3.30;;;21.20;74.30;;;;;;5033313;28;20498;-52
2022/05/25 09:21:23;;;;;;;5.43;3.07;;;21.10;73.70;;;;;;5033690;28;20438;-51
2022/05/25 09:23:53;;;;;;;4.03;3.43;;;21.20;73.90;;;;;;5032776;28;20440;-53
2022/05/25 09:26:21;;;;;;;3.50;2.30;;;21.20;73.60;;;;;;5033057;28;20460;-51
2022/05/25 09:28:54;;;;;;;4.13;2.83;;;21.20;73.40;;;;;;5032884;28;20434;-51
2022/05/25 09:31:26;;;;;;;7.43;3.13;;;21.00;72.40;;;;;;5033383;28;20434;-52
2022/05/25 09:33:57;;;;;;;4.40;2.43;;;21.10;73.00;;;;;;5033266;28;20487;-53
2022/05/25 09:36:29;;;;;;;7.20;3.10;;;21.40;73.10;;;;;;5033531;28;20438;-53
2022/05/25 09:39:04;;;;;;;11.63;3.33;;;21.10;72.60;;;;;;5032691;28;20438;-52
2022/05/25 09:41:33;;;;;;;2.77;1.90;;;21.60;72.10;;;;;;5033078;28;20767;-52
2022/05/25 09:44:06;;;;;;;5.77;1.67;;;21.30;70.40;;;;;;5031479;28;20454;-52
2022/05/25 09:46:38;;;;;;;5.73;2.07;;;21.70;70.70;;;;;;5032707;28;20493;-52
2022/05/25 09:49:07;;;;;;;3.63;2.13;;;21.30;70.10;;;;;;5032272;28;20435;-53
2022/05/25 09:51:37;;;;;;;4.10;2.40;;;21.50;70.00;;;;;;5032948;28;20439;-52
2022/05/25 09:54:11;;;;;;;5.87;3.10;;;21.10;70.00;;;;;;5033344;28;20485;-52
2022/05/25 09:56:44;;;;;;;4.60;2.20;;;21.20;70.10;;;;;;5031301;28;20476;-52
2022/05/25 09:59:25;;;;;;;2.70;2.07;;;21.30;70.20;;;;;;5031215;28;20882;-52
2022/05/25 10:01:54;;;;;;;3.80;2.00;;;21.50;69.80;;;;;;5032672;28;20450;-53
2022/05/25 10:04:36;;;;;;;2.83;1.93;;;21.50;69.30;;;;;;5032522;28;20465;-53
2022/05/25 10:07:18;;;;;;;3.00;1.80;;;21.60;66.30;;;;;;5055675;23;20662;-48
2022/05/25 10:09:48;;;;;;;2.90;1.93;;;21.80;65.80;;;;;;5031897;28;20434;-48
2022/05/25 10:12:25;;;;;;;3.50;2.77;;;21.90;65.70;;;;;;5032115;28;20434;-47
2022/05/25 10:14:58;;;;;;;4.23;2.00;;;21.90;64.10;;;;;;5032286;28;21008;-47
2022/05/25 10:17:34;;;;;;;9.00;2.40;;;22.10;64.60;;;;;;5032376;28;20458;-49
2022/05/25 10:20:04;;;;;;;3.30;2.13;;;22.40;64.60;;;;;;5031693;28;20443;-48
2022/05/25 10:22:35;;;;;;;4.20;2.50;;;22.30;64.20;;;;;;5032007;28;20428;-48
2022/05/25 10:25:05;;;;;;;2.43;1.70;;;22.40;63.60;;;;;;5032002;28;20851;-48
2022/05/25 10:27:39;;;;;;;5.90;2.67;;;22.50;63.90;;;;;;5030469;28;20474;-47
2022/05/25 10:38:46;;;;;;;6.07;1.97;;;22.00;61.40;;;;;;5031313;28;20465;-48
2022/05/25 10:44:15;;;;;;;3.87;2.17;;;22.10;61.80;;;;;;5031343;28;20600;-50
2022/05/25 10:46:50;;;;;;;4.87;1.83;;;22.10;62.10;;;;;;5031561;28;20442;-47
2022/05/25 10:49:24;;;;;;;4.23;2.03;;;22.30;62.40;;;;;;5031871;28;20428;-50
2022/05/25 10:51:55;;;;;;;4.03;2.07;;;22.70;63.40;;;;;;5031694;28;20442;-49
2022/05/25 10:54:50;;;;;;;3.13;1.50;;;22.10;62.40;;;;;;5031558;28;21025;-49
2022/05/25 10:57:45;;;;;;;2.50;1.63;;;22.00;61.30;;;;;;5030758;28;20467;-49
2022/05/25 11:00:18;;;;;;;3.40;1.50;;;22.30;61.70;;;;;;5031208;28;20438;-51
2022/05/25 11:03:20;;;;;;;3.00;1.70;;;22.30;61.90;;;;;;5031461;28;20806;-50
2022/05/25 11:05:52;;;;;;;5.30;2.17;;;22.30;60.60;;;;;;5031166;28;20427;-48
2022/05/25 11:08:31;;;;;;;3.60;2.07;;;22.10;61.10;;;;;;5031030;28;20522;-48
2022/05/25 11:11:03;;;;;;;2.90;1.60;;;22.30;61.70;;;;;;5029917;28;20453;-47
2022/05/25 11:14:13;;;;;;;4.70;2.23;;;22.30;62.30;;;;;;5031367;28;20447;-47
2022/05/25 11:16:51;;;;;;;3.67;1.33;;;22.30;62.40;;;;;;5030981;28;20434;-48
2022/05/25 11:19:40;;;;;;;2.60;1.70;;;22.10;61.50;;;;;;5030928;28;20435;-48
2022/05/25 11:22:21;;;;;;;3.20;1.50;;;22.60;60.40;;;;;;5031603;28;20447;-48
2022/05/25 11:24:59;;;;;;;3.90;2.13;;;22.70;59.70;;;;;;5031370;28;20893;-48
2022/05/25 11:27:41;;;;;;;5.10;2.33;;;22.70;59.30;;;;;;5030349;28;20927;-49
2022/05/25 11:30:14;;;;;;;2.90;1.97;;;22.70;59.00;;;;;;5030408;28;20443;-48
2022/05/25 11:32:59;;;;;;;2.33;1.37;;;22.40;58.90;;;;;;5030897;28;20803;-49
2022/05/25 11:35:39;;;;;;;2.17;1.50;;;22.30;57.80;;;;;;5030664;28;20482;-47
2022/05/25 11:38:17;;;;;;;1.97;1.20;;;22.60;57.80;;;;;;5030524;28;20456;-47
2022/05/25 11:40:51;;;;;;;2.50;1.40;;;22.30;56.80;;;;;;5030328;28;20443;-49
2022/05/25 11:43:59;;;;;;;4.70;1.50;;;22.00;57.10;;;;;;5030680;28;20462;-48
2022/05/25 11:46:36;;;;;;;5.87;1.53;;;22.50;56.60;;;;;;5030429;28;20487;-48
2022/05/25 11:49:27;;;;;;;3.57;1.40;;;22.20;56.60;;;;;;5030843;28;20452;-47
2022/05/25 11:52:01;;;;;;;2.53;1.47;;;22.50;56.50;;;;;;5030781;28;20443;-48
2022/05/25 11:54:44;;;;;;;2.83;1.50;;;22.20;56.70;;;;;;5030271;28;20479;-48
2022/05/25 11:57:17;;;;;;;7.00;1.60;;;22.80;57.00;;;;;;5030637;28;20570;-47
2022/05/25 12:00:05;;;;;;;4.90;1.30;;;22.40;56.60;;;;;;5030508;28;20433;-48
2022/05/25 12:03:05;;;;;;;3.60;1.47;;;23.00;57.00;;;;;;5031180;28;20769;-47
2022/05/25 12:05:45;;;;;;;4.30;1.63;;;23.10;56.50;;;;;;4997429;28;20535;-48
2022/05/25 12:08:31;;;;;;;4.67;1.53;;;23.20;56.00;;;;;;5031550;28;20488;-48
2022/05/25 12:11:07;;;;;;;3.43;1.30;;;23.30;55.60;;;;;;5034823;28;20823;-48
2022/05/25 12:13:38;;;;;;;1.90;1.20;;;23.40;55.20;;;;;;5034831;28;20484;-48
2022/05/25 12:16:13;;;;;;;2.80;1.27;;;22.90;55.20;;;;;;5034502;28;20491;-47
2022/05/25 12:18:44;;;;;;;2.10;1.13;;;22.90;55.30;;;;;;5034139;28;20486;-47
2022/05/25 12:21:16;;;;;;;4.83;1.60;;;23.60;55.50;;;;;;5035332;28;20449;-48
2022/05/25 12:23:46;;;;;;;1.87;1.10;;;23.40;55.40;;;;;;5034913;28;20445;-49
2022/05/25 12:26:16;;;;;;;2.67;2.13;;;23.30;55.40;;;;;;5034153;28;20449;-48
2022/05/25 12:28:46;;;;;;;2.23;1.80;;;23.30;55.30;;;;;;5034096;28;20469;-49
2022/05/25 12:31:18;;;;;;;2.93;1.60;;;23.30;55.30;;;;;;5034263;28;20449;-48
2022/05/25 12:33:46;;;;;;;4.00;1.70;;;23.30;55.30;;;;;;5034242;28;20436;-48
2022/05/25 12:36:14;;;;;;;3.33;2.20;;;23.00;55.10;;;;;;5034070;28;20473;-50
2022/05/25 12:38:41;;;;;;;2.80;1.70;;;23.30;55.20;;;;;;5033456;28;20990;-47
2022/05/25 12:41:27;;;;;;;3.20;1.67;;;23.40;55.40;;;;;;5033757;28;20500;-47
2022/05/25 12:44:00;;;;;;;3.57;2.47;;;23.50;55.10;;;;;;5034043;28;20441;-48
2022/05/25 12:49:48;;;;;;;3.43;1.40;;;23.60;55.10;;;;;;5033175;28;20564;-49
2022/05/25 12:52:46;;;;;;;2.47;1.40;;;23.50;55.40;;;;;;5033272;28;20810;-52
2022/05/25 12:55:33;;;;;;;5.33;1.83;;;23.50;55.40;;;;;;5033589;28;20532;-48
2022/05/25 12:58:01;;;;;;;1.90;1.13;;;23.50;55.80;;;;;;5033066;28;20519;-46
2022/05/25 13:00:40;;;;;;;2.57;1.60;;;23.40;56.00;;;;;;5032882;28;20449;-48
2022/05/25 13:03:35;;;;;;;7.80;3.40;;;23.40;55.60;;;;;;5031973;28;20448;-48
2022/05/25 13:06:03;;;;;;;3.13;1.50;;;23.40;56.10;;;;;;5033826;28;20441;-48
2022/05/25 13:09:09;;;;;;;3.83;1.37;;;23.10;56.00;;;;;;5033226;28;20488;-49
2022/05/25 13:11:55;;;;;;;3.57;1.47;;;23.40;56.10;;;;;;5033592;28;20945;-49
2022/05/25 13:14:56;;;;;;;3.03;1.50;;;23.30;55.90;;;;;;5033167;28;20537;-50
2022/05/25 13:17:45;;;;;;;5.03;1.60;;;23.70;56.10;;;;;;4990796;28;20973;-47
2022/05/25 13:20:48;;;;;;;2.63;1.33;;;23.30;55.90;;;;;;4989591;28;20476;-49
2022/05/25 13:23:48;;;;;;;5.23;1.77;;;23.40;55.50;;;;;;4991308;28;20557;-48
2022/05/25 13:26:15;;;;;;;5.53;1.73;;;23.40;55.40;;;;;;4991468;28;20430;-48
2022/05/25 13:28:49;;;;;;;8.83;3.40;;;23.40;55.20;;;;;;4990061;28;20471;-48
2022/05/25 13:31:30;;;;;;;7.27;1.33;;;23.50;55.30;;;;;;4990258;28;20544;-49
2022/05/25 13:33:59;;;;;;;2.93;1.50;;;23.50;54.80;;;;;;4990338;28;20451;-48
2022/05/25 13:36:29;;;;;;;2.43;1.20;;;23.40;54.10;;;;;;4990117;28;20487;-49
2022/05/25 13:38:57;;;;;;;6.23;2.10;;;23.40;54.20;;;;;;4973610;28;20946;-47
2022/05/25 13:41:27;;;;;;;3.63;1.47;;;23.20;54.00;;;;;;4990675;28;20453;-47